createdAt,value
2024-05-09T00:00:39.266Z,3.83
2024-05-09T00:03:46.886Z,3.45
2024-05-09T00:06:51.743Z,3.47
2024-05-09T00:09:50.910Z,5.53
2024-05-09T00:12:55.698Z,2.33
2024-05-09T00:16:01.753Z,5.35
2024-05-09T00:19:00.269Z,4.53
2024-05-09T00:22:06.731Z,2.65
2024-05-09T00:25:06.131Z,5.35
2024-05-09T00:28:10.705Z,4.45
2024-05-09T00:31:23.728Z,6.18
2024-05-09T00:34:21.880Z,4.35
2024-05-09T00:37:26.741Z,2.90
2024-05-09T00:40:35.360Z,3.08
2024-05-09T00:43:44.805Z,2.85
2024-05-09T00:46:44.484Z,4.05
2024-05-09T00:49:49.879Z,5.60
2024-05-09T00:52:55.775Z,3.25
2024-05-09T00:55:56.800Z,3.90
2024-05-09T00:59:03.854Z,7.53
2024-05-09T01:02:02.273Z,3.85
2024-05-09T01:05:06.866Z,5.68
2024-05-09T01:08:06.057Z,4.35
2024-05-09T01:11:10.877Z,3.38
2024-05-09T01:14:09.143Z,3.08
2024-05-09T01:17:15.826Z,8.25
2024-05-09T01:20:20.167Z,2.38
2024-05-09T01:23:33.923Z,5.50
2024-05-09T01:26:32.136Z,5.80
2024-05-09T01:29:36.866Z,2.85
2024-05-09T01:32:35.267Z,3.08
2024-05-09T01:35:46.782Z,6.78
2024-05-09T01:38:46.106Z,6.38
2024-05-09T01:41:50.805Z,3.67
2024-05-09T01:44:56.781Z,3.58
2024-05-09T01:47:56.142Z,3.58
2024-05-09T01:51:00.897Z,4.00
2024-05-09T01:54:06.895Z,3.58
2024-05-09T01:57:05.850Z,3.60
2024-05-09T02:00:07.642Z,4.43
2024-05-09T02:03:16.480Z,10.07
2024-05-09T02:06:22.817Z,3.83
2024-05-09T02:09:29.795Z,3.55
2024-05-09T02:12:28.216Z,6.05
2024-05-09T02:15:33.824Z,5.33
2024-05-09T02:18:32.155Z,3.47
2024-05-09T02:21:40.813Z,6.25
2024-05-09T02:24:46.818Z,2.92
2024-05-09T02:27:45.204Z,3.33
2024-05-09T02:30:49.822Z,12.20
2024-05-09T02:33:55.004Z,3.20
2024-05-09T02:36:56.144Z,3.70
2024-05-09T02:40:00.842Z,4.53
2024-05-09T02:42:59.932Z,4.38
2024-05-09T02:46:04.865Z,4.45
2024-05-09T02:49:04.076Z,2.40
2024-05-09T02:55:14.955Z,4.28
2024-05-09T02:58:13.875Z,10.85
2024-05-09T03:04:17.890Z,3.05
2024-05-09T03:07:22.871Z,5.80
2024-05-09T03:10:25.686Z,3.60
2024-05-09T03:13:33.868Z,5.40
2024-05-09T03:16:38.881Z,3.47
2024-05-09T03:19:38.337Z,8.48
2024-05-09T03:25:57.154Z,4.95
2024-05-09T03:29:01.895Z,3.80
2024-05-09T03:32:01.390Z,3.22
2024-05-09T03:38:19.029Z,4.20
2024-05-09T03:41:23.953Z,4.22
2024-05-09T03:44:22.247Z,3.20
2024-05-09T03:47:27.111Z,3.60
2024-05-09T03:50:35.557Z,3.17
2024-05-09T03:53:41.999Z,5.05
2024-05-09T03:56:40.260Z,3.65
2024-05-09T03:59:45.898Z,5.13
2024-05-09T04:02:54.003Z,3.42
2024-05-09T04:05:53.067Z,3.83
2024-05-09T04:08:57.888Z,4.85
2024-05-09T04:11:57.240Z,9.57
2024-05-09T04:15:01.913Z,4.20
2024-05-09T04:18:01.914Z,11.32
2024-05-09T04:21:09.021Z,23.23
2024-05-09T04:24:08.013Z,36.17
2024-05-09T04:27:12.927Z,56.45
2024-05-09T04:30:26.231Z,54.38
2024-05-09T04:33:41.058Z,45.17
2024-05-09T04:36:41.624Z,27.42
2024-05-09T04:39:46.986Z,9.57
2024-05-09T04:42:54.959Z,10.20
2024-05-09T04:45:53.500Z,7.60
2024-05-09T04:49:00.031Z,8.07
2024-05-09T04:51:59.310Z,8.57
2024-05-09T04:55:04.941Z,12.93
2024-05-09T04:58:12.151Z,11.05
2024-05-09T05:01:17.985Z,7.93
2024-05-09T05:04:16.442Z,10.27
2024-05-09T05:07:21.950Z,10.50
2024-05-09T05:10:25.494Z,7.78
2024-05-09T05:13:36.724Z,8.20
2024-05-09T05:16:36.369Z,9.93
2024-05-09T05:19:42.022Z,11.02
2024-05-09T05:22:43.714Z,4.78
2024-05-09T05:25:50.183Z,10.82
2024-05-09T05:28:55.097Z,9.65
2024-05-09T05:31:54.143Z,6.80
2024-05-09T05:34:59.020Z,5.15
2024-05-09T05:37:57.124Z,4.45
2024-05-09T05:41:02.102Z,6.13
2024-05-09T05:44:00.100Z,7.20
2024-05-09T05:47:04.998Z,7.63
2024-05-09T05:50:07.081Z,8.00
2024-05-09T05:53:16.074Z,5.47
2024-05-09T05:56:21.095Z,5.55
2024-05-09T05:59:19.417Z,9.55
2024-05-09T06:02:24.074Z,5.68
2024-05-09T06:05:29.167Z,5.88
2024-05-09T06:08:35.035Z,5.28
2024-05-09T06:11:33.374Z,7.07
2024-05-09T06:14:39.092Z,6.47
2024-05-09T06:17:38.429Z,5.43
2024-05-09T06:23:47.454Z,7.78
2024-05-09T06:26:42.375Z,8.13
2024-05-09T06:29:27.892Z,6.72
2024-05-09T06:32:13.447Z,7.97
2024-05-09T06:34:59.035Z,4.78
2024-05-09T06:37:44.635Z,5.43
2024-05-09T06:40:37.161Z,5.95
2024-05-09T06:43:24.743Z,4.85
2024-05-09T06:46:10.146Z,3.42
2024-05-09T06:48:57.051Z,4.25
2024-05-09T06:51:42.879Z,4.72
2024-05-09T06:54:28.227Z,4.35
2024-05-09T06:57:13.928Z,4.80
2024-05-09T07:00:00.881Z,3.80
2024-05-09T07:02:46.391Z,5.28
2024-05-09T07:05:31.824Z,8.77
2024-05-09T07:08:18.002Z,7.63
2024-05-09T07:11:04.558Z,3.95
2024-05-09T07:13:50.343Z,3.40
2024-05-09T07:16:36.082Z,11.98
2024-05-09T07:19:21.398Z,6.68
2024-05-09T07:22:07.237Z,4.03
2024-05-09T07:24:53.807Z,4.10
2024-05-09T07:27:39.204Z,3.40
2024-05-09T07:30:32.671Z,3.65
2024-05-09T07:33:27.385Z,6.63
2024-05-09T07:36:19.216Z,2.97
2024-05-09T07:39:05.817Z,7.72
2024-05-09T07:41:51.329Z,5.90
2024-05-09T07:44:36.719Z,3.28
2024-05-09T07:48:56.521Z,6.30
2024-05-09T07:53:37.830Z,2.70
2024-05-09T07:56:23.161Z,4.57
2024-05-09T07:59:09.798Z,4.60
2024-05-09T08:01:55.679Z,3.72
2024-05-09T08:04:41.269Z,4.50
2024-05-09T08:07:26.831Z,5.97
2024-05-09T08:10:15.398Z,2.15
2024-05-09T08:13:04.711Z,3.30
2024-05-09T08:15:51.795Z,3.08
2024-05-09T08:18:37.594Z,2.30
2024-05-09T08:21:23.604Z,3.33
2024-05-09T08:24:10.561Z,3.15
2024-05-09T08:26:55.868Z,1.77
2024-05-09T08:29:41.470Z,3.75
2024-05-09T08:32:27.527Z,5.15
2024-05-09T08:35:12.746Z,5.50
2024-05-09T08:37:58.275Z,2.60
2024-05-09T08:40:43.852Z,4.18
2024-05-09T08:43:30.218Z,2.58
2024-05-09T08:46:18.524Z,3.40
2024-05-09T08:49:04.769Z,3.08
2024-05-09T08:51:50.576Z,2.63
2024-05-09T08:54:36.006Z,5.20
2024-05-09T08:57:22.800Z,6.05
2024-05-09T09:00:12.723Z,2.95
2024-05-09T09:03:02.809Z,2.50
2024-05-09T09:06:12.698Z,3.88
2024-05-09T09:08:59.408Z,5.13
2024-05-09T09:11:45.281Z,2.78
2024-05-09T09:14:30.532Z,4.47
2024-05-09T09:17:16.886Z,5.68
2024-05-09T09:20:02.695Z,2.70
2024-05-09T09:22:48.270Z,6.93
2024-05-09T09:25:33.991Z,4.78
2024-05-09T09:28:23.418Z,4.45
2024-05-09T09:31:09.091Z,6.32
2024-05-09T09:33:54.919Z,5.93
2024-05-09T09:36:42.939Z,3.78
2024-05-09T09:39:31.861Z,3.97
2024-05-09T09:42:18.488Z,3.03
2024-05-09T09:45:05.779Z,5.00
2024-05-09T09:47:57.147Z,5.60
2024-05-09T09:50:43.422Z,3.15
2024-05-09T09:53:29.379Z,5.22
2024-05-09T09:56:18.100Z,7.35
2024-05-09T09:59:04.737Z,14.63
2024-05-09T10:01:50.547Z,3.20
2024-05-09T10:04:36.770Z,5.20
2024-05-09T10:07:23.015Z,10.63
2024-05-09T10:10:11.026Z,4.38
2024-05-09T10:13:07.666Z,10.15
2024-05-09T10:15:54.476Z,4.43
2024-05-09T10:18:41.495Z,3.45
2024-05-09T10:21:27.538Z,3.58
2024-05-09T10:24:12.939Z,5.43
2024-05-09T10:26:58.567Z,3.60
2024-05-09T10:29:58.433Z,8.20
2024-05-09T10:32:44.995Z,12.23
2024-05-09T10:35:32.132Z,2.95
2024-05-09T10:38:18.241Z,2.35
2024-05-09T10:41:04.922Z,3.83
2024-05-09T10:43:51.425Z,3.38
2024-05-09T10:46:37.356Z,7.22
2024-05-09T10:49:23.143Z,2.53
2024-05-09T10:52:08.942Z,4.07
2024-05-09T10:54:54.868Z,4.60
2024-05-09T10:57:41.032Z,3.00
2024-05-09T11:00:36.109Z,8.27
2024-05-09T11:03:25.854Z,7.05
2024-05-09T11:06:11.939Z,3.17
2024-05-09T11:08:57.863Z,3.63
2024-05-09T11:11:43.291Z,3.92
2024-05-09T11:14:28.667Z,3.55
2024-05-09T11:17:14.299Z,7.75
2024-05-09T11:20:00.570Z,4.72
2024-05-09T11:22:46.151Z,3.97
2024-05-09T11:25:33.302Z,2.85
2024-05-09T11:28:19.424Z,9.95
2024-05-09T11:31:10.396Z,5.00
2024-05-09T11:33:56.670Z,4.82
2024-05-09T11:36:41.974Z,2.88
2024-05-09T11:39:27.521Z,5.43
2024-05-09T11:42:13.090Z,5.15
2024-05-09T11:44:58.397Z,3.88
2024-05-09T11:47:44.174Z,6.35
2024-05-09T11:50:34.683Z,3.25
2024-05-09T11:53:21.286Z,3.00
2024-05-09T11:56:07.359Z,6.25
2024-05-09T11:58:53.315Z,5.68
2024-05-09T12:01:38.693Z,3.28
2024-05-09T12:04:24.465Z,3.30
2024-05-09T12:07:12.656Z,4.80
2024-05-09T12:09:58.277Z,7.30
2024-05-09T12:12:44.114Z,3.17
2024-05-09T12:15:29.457Z,2.60
2024-05-09T12:18:15.024Z,5.30
2024-05-09T12:21:01.643Z,7.75
2024-05-09T12:23:47.208Z,9.27
2024-05-09T12:26:33.085Z,5.07
2024-05-09T12:29:18.367Z,6.13
2024-05-09T12:32:03.936Z,4.07
2024-05-09T12:34:49.487Z,4.35
2024-05-09T12:37:34.907Z,3.92
2024-05-09T12:40:26.859Z,4.22
2024-05-09T12:43:19.917Z,10.10
2024-05-09T12:46:05.794Z,6.07
2024-05-09T12:48:51.950Z,2.45
2024-05-09T12:51:38.350Z,3.17
2024-05-09T12:54:23.572Z,3.55
2024-05-09T12:57:09.390Z,4.95
2024-05-09T12:59:55.821Z,3.53
2024-05-09T13:02:41.660Z,3.72
2024-05-09T13:05:27.397Z,2.47
2024-05-09T13:08:16.304Z,2.60
2024-05-09T13:11:01.831Z,3.80
2024-05-09T13:13:47.071Z,6.28
2024-05-09T13:16:32.866Z,5.75
2024-05-09T13:19:18.597Z,6.30
2024-05-09T13:22:04.262Z,4.00
2024-05-09T13:24:49.672Z,6.38
2024-05-09T13:27:35.197Z,5.45
2024-05-09T13:30:29.294Z,2.40
2024-05-09T13:33:29.653Z,6.25
2024-05-09T13:36:21.547Z,6.05
2024-05-09T13:39:07.197Z,3.08
2024-05-09T13:41:52.640Z,5.10
2024-05-09T13:44:38.318Z,8.57
2024-05-09T13:47:24.351Z,8.07
2024-05-09T13:50:14.211Z,4.43
2024-05-09T13:53:07.465Z,2.35
2024-05-09T13:55:54.116Z,2.90
2024-05-09T13:58:39.624Z,3.33
2024-05-09T14:01:25.537Z,3.42
2024-05-09T14:04:11.767Z,5.03
2024-05-09T14:06:57.417Z,2.65
2024-05-09T14:09:42.758Z,6.85
2024-05-09T14:12:28.071Z,4.97
2024-05-09T14:15:13.744Z,10.15
2024-05-09T14:17:59.158Z,6.47
2024-05-09T14:20:44.737Z,3.85
2024-05-09T14:23:30.093Z,3.10
2024-05-09T14:26:15.589Z,5.57
2024-05-09T14:29:01.202Z,4.05
2024-05-09T14:31:53.548Z,4.18
2024-05-09T14:37:31.335Z,11.80
2024-05-09T14:40:30.602Z,3.85
2024-05-09T14:43:22.229Z,8.23
2024-05-09T14:46:07.900Z,3.47
2024-05-09T14:48:53.458Z,6.85
2024-05-09T14:51:40.155Z,6.95
2024-05-09T14:54:25.905Z,2.90
2024-05-09T14:57:11.562Z,10.48
2024-05-09T14:59:57.324Z,2.78
2024-05-09T15:02:42.874Z,3.30
2024-05-09T15:05:28.400Z,3.38
2024-05-09T15:08:14.247Z,4.25
2024-05-09T15:10:59.872Z,4.63
2024-05-09T15:13:45.151Z,9.13
2024-05-09T15:16:31.288Z,7.18
2024-05-09T15:19:17.210Z,8.55
2024-05-09T15:22:03.285Z,6.10
2024-05-09T15:24:48.625Z,3.53
2024-05-09T15:27:34.296Z,6.25
2024-05-09T15:30:28.155Z,4.43
2024-05-09T15:33:17.451Z,3.95
2024-05-09T15:36:10.204Z,6.15
2024-05-09T15:39:03.088Z,4.18
2024-05-09T15:41:56.447Z,33.30
2024-05-09T15:44:42.089Z,26.00
2024-05-09T15:47:28.143Z,7.97
2024-05-09T15:50:20.487Z,8.70
2024-05-09T15:53:14.045Z,7.75
2024-05-09T15:56:28.483Z,7.68
2024-05-09T15:59:16.530Z,9.82
2024-05-09T16:02:11.556Z,3.08
2024-05-09T16:04:57.496Z,6.38
2024-05-09T16:07:42.758Z,4.28
2024-05-09T16:10:32.748Z,9.68
2024-05-09T16:24:11.175Z,3.58
2024-05-09T16:26:57.565Z,8.48
2024-05-09T16:29:44.188Z,2.60
2024-05-09T16:32:29.975Z,4.38
2024-05-09T16:35:16.138Z,3.47
2024-05-09T16:38:03.116Z,10.27
2024-05-09T16:40:48.725Z,6.68
2024-05-09T16:43:34.507Z,7.90
2024-05-09T16:46:20.276Z,4.63
2024-05-09T16:49:05.909Z,6.70
2024-05-09T16:51:51.332Z,8.63
2024-05-09T16:54:37.062Z,7.63
2024-05-09T16:57:22.566Z,3.20
2024-05-09T17:00:14.856Z,4.65
2024-05-09T17:03:07.968Z,3.30
2024-05-09T17:05:53.730Z,3.63
2024-05-09T17:08:40.498Z,13.43
2024-05-09T17:11:26.131Z,7.63
2024-05-09T17:14:11.734Z,5.13
2024-05-09T17:16:57.369Z,4.15
2024-05-09T17:19:44.968Z,5.07
2024-05-09T17:22:31.798Z,6.32
2024-05-09T17:25:17.263Z,10.77
2024-05-09T17:28:07.680Z,5.88
2024-05-09T17:30:53.676Z,12.70
2024-05-09T17:33:39.156Z,9.90
2024-05-09T17:36:25.079Z,7.25
2024-05-09T17:39:10.925Z,4.60
2024-05-09T17:41:56.307Z,7.45
2024-05-09T17:44:41.671Z,5.53
2024-05-09T17:47:27.265Z,5.13
2024-05-09T17:50:17.370Z,6.22
2024-05-09T17:53:10.714Z,6.82
2024-05-09T17:55:56.827Z,9.40
2024-05-09T17:58:42.934Z,4.97
2024-05-09T18:01:28.323Z,8.05
2024-05-09T18:04:14.127Z,10.40
2024-05-09T18:07:00.070Z,11.20
2024-05-09T18:09:45.949Z,4.93
2024-05-09T18:12:31.551Z,3.83
2024-05-09T18:15:17.094Z,4.50
2024-05-09T18:18:03.643Z,29.10
2024-05-09T18:20:49.495Z,5.68
2024-05-09T18:23:34.994Z,5.85
2024-05-09T18:26:20.504Z,4.20
2024-05-09T18:29:06.026Z,5.75
2024-05-09T18:31:51.561Z,6.18
2024-05-09T18:34:37.249Z,4.20
2024-05-09T18:37:23.091Z,8.77
2024-05-09T18:40:12.205Z,5.88
2024-05-09T18:43:06.747Z,3.90
2024-05-09T18:45:53.902Z,7.70
2024-05-09T18:48:39.728Z,4.95
2024-05-09T18:51:25.244Z,3.97
2024-05-09T18:54:10.691Z,4.85
2024-05-09T18:56:56.272Z,5.85
2024-05-09T18:59:41.847Z,5.10
2024-05-09T19:02:27.288Z,4.50
2024-05-09T19:05:13.120Z,4.03
2024-05-09T19:07:58.874Z,7.20
2024-05-09T19:10:47.457Z,6.20
2024-05-09T19:13:33.280Z,5.43
2024-05-09T19:16:19.310Z,5.70
2024-05-09T19:19:05.604Z,4.13
2024-05-09T19:21:51.028Z,4.57
2024-05-09T19:24:36.864Z,8.30
2024-05-09T19:27:22.208Z,7.45
2024-05-09T19:30:17.394Z,5.03
2024-05-09T19:33:12.893Z,6.93
2024-05-09T19:35:59.380Z,4.70
2024-05-09T19:38:45.176Z,8.43
2024-05-09T19:41:30.704Z,3.58
2024-05-09T19:44:16.442Z,3.88
2024-05-09T19:47:02.160Z,4.70
2024-05-09T19:49:47.705Z,4.72
2024-05-09T19:52:33.557Z,8.52
2024-05-09T19:55:19.252Z,6.03
2024-05-09T19:58:07.152Z,4.38
2024-05-09T20:00:53.167Z,4.45
2024-05-09T20:03:38.917Z,5.03
2024-05-09T20:06:25.241Z,4.88
2024-05-09T20:09:10.988Z,4.78
2024-05-09T20:11:56.698Z,5.32
2024-05-09T20:14:42.358Z,4.93
2024-05-09T20:17:28.032Z,4.40
2024-05-09T20:20:20.320Z,3.55
2024-05-09T20:23:14.355Z,6.10
2024-05-09T20:25:59.753Z,3.33
2024-05-09T20:28:46.368Z,4.88
2024-05-09T20:31:31.713Z,5.82
2024-05-09T20:34:17.708Z,7.68
2024-05-09T20:37:10.306Z,6.30
2024-05-09T20:39:56.252Z,6.22
2024-05-09T20:42:44.870Z,4.47
2024-05-09T20:45:30.278Z,9.23
2024-05-09T20:48:15.853Z,5.60
2024-05-09T20:51:01.331Z,4.70
2024-05-09T20:53:47.132Z,4.80
2024-05-09T20:56:32.877Z,5.18
2024-05-09T20:59:18.600Z,4.57
2024-05-09T21:02:04.157Z,7.90
2024-05-09T21:04:49.598Z,4.50
2024-05-09T21:07:35.436Z,5.28
2024-05-09T21:10:22.828Z,6.63
2024-05-09T21:13:08.659Z,8.80
2024-05-09T21:15:54.140Z,3.83
2024-05-09T21:18:39.842Z,3.53
2024-05-09T21:21:25.481Z,3.58
2024-05-09T21:24:10.905Z,10.50
2024-05-09T21:26:56.510Z,7.10
2024-05-09T21:29:41.969Z,4.68
2024-05-09T21:32:27.424Z,4.70
2024-05-09T21:35:12.819Z,4.20
2024-05-09T21:37:58.251Z,4.93
2024-05-09T21:40:44.227Z,4.15
2024-05-09T21:43:31.629Z,6.68
2024-05-09T21:46:17.093Z,5.88
2024-05-09T21:49:03.298Z,4.00
2024-05-09T21:51:49.627Z,10.77
2024-05-09T21:54:35.304Z,6.93
2024-05-09T21:57:21.910Z,3.33
2024-05-09T22:00:25.117Z,8.25
2024-05-09T22:03:18.164Z,5.38
2024-05-09T22:06:03.735Z,9.85
2024-05-09T22:08:49.168Z,4.00
2024-05-09T22:11:35.022Z,4.88
2024-05-09T22:14:21.590Z,4.97
2024-05-09T22:17:07.026Z,6.85
2024-05-09T22:19:53.063Z,4.78
2024-05-09T22:22:38.656Z,4.95
2024-05-09T22:25:26.077Z,7.63
2024-05-09T22:28:15.500Z,5.38
2024-05-09T22:31:00.998Z,5.90
2024-05-09T22:33:48.255Z,4.90
2024-05-09T22:36:34.071Z,11.20
2024-05-09T22:39:19.623Z,5.07
2024-05-09T22:42:05.219Z,7.43
2024-05-09T22:44:50.519Z,3.80
2024-05-09T22:47:35.930Z,5.40
2024-05-09T22:50:26.811Z,6.25
2024-05-09T22:53:16.448Z,8.00
2024-05-09T22:56:01.864Z,4.70
2024-05-09T22:58:47.333Z,7.10
2024-05-09T23:01:33.367Z,6.72
2024-05-09T23:04:51.099Z,3.95
2024-05-09T23:07:38.797Z,8.52
2024-05-09T23:10:31.593Z,3.22
2024-05-09T23:13:21.235Z,5.45
2024-05-09T23:16:07.180Z,9.95
2024-05-09T23:18:52.556Z,7.78
2024-05-09T23:21:40.147Z,6.32
2024-05-09T23:24:25.716Z,5.30
2024-05-09T23:27:11.468Z,5.72
2024-05-09T23:29:57.356Z,5.20
2024-05-09T23:32:42.997Z,8.10
2024-05-09T23:35:28.769Z,7.78
2024-05-09T23:38:14.534Z,4.72
2024-05-09T23:41:00.031Z,6.93
2024-05-09T23:43:45.484Z,6.55
2024-05-09T23:46:31.285Z,4.45
2024-05-09T23:49:16.659Z,4.60
2024-05-09T23:52:02.112Z,5.40
2024-05-09T23:54:47.598Z,7.05
2024-05-09T23:57:33.336Z,7.50
